Time;durP1;ratioP1;P1;durP2;ratioP2;P2;SDS_P1;SDS_P2;PMS_P1;PMS_P2;Temp;Humidity;BMP_temperature;BMP_pressure;BME280_temperature;BME280_humidity;BME280_pressure;Samples;Min_cycle;Max_cycle;Signal;HPM_P1;HPM_P2
2023/05/19 00:01:00;;;;;;;16.02;6.38;;;;;;;;;;5011970;28;20060;-73
2023/05/19 00:03:26;;;;;;;18.63;6.28;;;;;;;;;;5013859;28;20487;-72
2023/05/19 00:05:53;;;;;;;17.50;6.05;;;;;;;;;;5014063;28;20049;-72
2023/05/19 00:08:19;;;;;;;13.43;5.68;;;;;;;;;;5013424;28;20054;-72
2023/05/19 00:10:46;;;;;;;18.73;6.22;;;;;;;;;;5011028;28;20049;-73
2023/05/19 00:13:12;;;;;;;14.35;5.68;;;;;;;;;;5014574;28;20062;-72
2023/05/19 00:15:38;;;;;;;16.02;5.43;;;;;;;;;;5014244;28;20045;-73
2023/05/19 00:18:07;;;;;;;14.40;5.45;;;;;;;;;;5013350;28;20046;-72
2023/05/19 00:20:33;;;;;;;15.07;4.72;;;;;;;;;;5014393;28;20454;-73
2023/05/19 00:22:59;;;;;;;18.42;5.68;;;;;;;;;;5014307;28;20130;-73
2023/05/19 00:25:26;;;;;;;14.38;5.38;;;;;;;;;;5013394;28;20080;-73
2023/05/19 00:27:52;;;;;;;16.33;5.15;;;;;;;;;;4996228;28;20038;-72
2023/05/19 00:30:18;;;;;;;15.57;5.15;;;;;;;;;;5012836;28;20368;-73
2023/05/19 00:32:44;;;;;;;18.10;5.57;;;;;;;;;;5012879;28;20137;-72
2023/05/19 00:35:10;;;;;;;16.75;4.85;;;;;;;;;;4996671;28;20114;-72
2023/05/19 00:37:36;;;;;;;17.75;5.32;;;;;;;;;;5014135;28;20049;-73
2023/05/19 00:40:04;;;;;;;14.60;4.68;;;;;;;;;;4996314;28;20038;-72
2023/05/19 00:42:31;;;;;;;15.25;4.65;;;;;;;;;;5013949;28;20398;-71
2023/05/19 00:44:57;;;;;;;14.88;4.72;;;;;;;;;;5013763;28;20038;-72
2023/05/19 00:47:23;;;;;;;15.13;5.22;;;;;;;;;;5013719;28;20494;-72
2023/05/19 00:49:49;;;;;;;14.15;5.10;;;;;;;;;;5013748;28;20048;-72
2023/05/19 00:52:15;;;;;;;17.60;5.70;;;;;;;;;;5013857;28;20100;-73
2023/05/19 00:54:42;;;;;;;13.93;4.78;;;;;;;;;;4996001;28;20042;-73
2023/05/19 00:57:08;;;;;;;14.75;4.95;;;;;;;;;;5012432;28;20033;-72
2023/05/19 00:59:35;;;;;;;16.58;5.03;;;;;;;;;;5011891;28;20401;-73
2023/05/19 01:02:01;;;;;;;20.15;4.85;;;;;;;;;;5013297;28;20054;-72
2023/05/19 01:04:28;;;;;;;19.38;5.55;;;;;;;;;;4995619;28;20099;-72
2023/05/19 01:06:54;;;;;;;14.45;5.35;;;;;;;;;;4996084;28;20042;-73
2023/05/19 01:09:23;;;;;;;17.05;5.18;;;;;;;;;;5013120;28;20487;-73
2023/05/19 01:11:49;;;;;;;13.35;4.80;;;;;;;;;;4995751;28;20049;-73
2023/05/19 01:14:16;;;;;;;15.40;4.90;;;;;;;;;;5013378;28;20053;-73
2023/05/19 01:16:49;;;;;;;15.40;5.20;;;;;;;;;;4979626;28;20044;-73
2023/05/19 01:19:31;;;;;;;18.05;5.10;;;;;;;;;;5013126;28;20402;-74
2023/05/19 01:21:57;;;;;;;20.45;5.43;;;;;;;;;;4995662;28;20140;-73
2023/05/19 01:24:38;;;;;;;13.43;5.78;;;;;;;;;;5012951;28;20180;-73
2023/05/19 01:27:27;;;;;;;19.63;5.93;;;;;;;;;;5011431;28;20399;-73
2023/05/19 01:29:53;;;;;;;14.25;5.07;;;;;;;;;;5005215;28;20447;-73
2023/05/19 01:32:20;;;;;;;16.13;5.53;;;;;;;;;;5013283;28;20081;-73
2023/05/19 01:34:48;;;;;;;18.27;5.50;;;;;;;;;;5012968;28;20124;-73
2023/05/19 01:37:14;;;;;;;16.58;5.60;;;;;;;;;;5012946;28;20038;-73
2023/05/19 01:39:41;;;;;;;14.82;5.30;;;;;;;;;;4978813;28;20053;-73
2023/05/19 01:42:08;;;;;;;17.33;5.65;;;;;;;;;;4995091;28;20042;-72
2023/05/19 01:44:34;;;;;;;14.43;4.95;;;;;;;;;;5013024;28;20053;-73
2023/05/19 01:47:00;;;;;;;17.08;5.43;;;;;;;;;;5012935;28;20077;-73
2023/05/19 01:49:26;;;;;;;21.52;5.47;;;;;;;;;;5012959;28;20046;-73
2023/05/19 01:51:52;;;;;;;14.80;4.75;;;;;;;;;;5012724;28;20042;-73
2023/05/19 01:54:18;;;;;;;19.80;4.78;;;;;;;;;;5009990;28;20115;-73
2023/05/19 01:57:05;;;;;;;14.75;4.65;;;;;;;;;;5011735;28;20049;-74
2023/05/19 01:59:31;;;;;;;;;;;;;;;;;;5012828;28;20038;-73
2023/05/19 02:01:58;;;;;;;19.80;5.32;;;;;;;;;;5012175;28;20392;-73
2023/05/19 02:04:50;;;;;;;17.92;5.45;;;;;;;;;;4993519;28;20050;-73
2023/05/19 02:07:24;;;;;;;20.50;5.13;;;;;;;;;;5011354;28;20056;-73
2023/05/19 02:10:04;;;;;;;19.20;5.38;;;;;;;;;;5011977;28;20050;-73
2023/05/19 02:12:38;;;;;;;14.73;5.75;;;;;;;;;;4994928;28;20061;-73
2023/05/19 02:15:05;;;;;;;23.27;5.30;;;;;;;;;;5012246;28;20060;-73
2023/05/19 02:17:32;;;;;;;18.17;5.85;;;;;;;;;;5012543;28;20103;-73
2023/05/19 02:19:58;;;;;;;20.55;5.55;;;;;;;;;;4994598;28;20050;-73
2023/05/19 02:22:25;;;;;;;19.00;5.45;;;;;;;;;;5012198;28;20120;-73
2023/05/19 02:24:51;;;;;;;17.23;5.40;;;;;;;;;;4994249;28;20133;-73
2023/05/19 02:27:17;;;;;;;20.15;5.70;;;;;;;;;;5012488;28;20483;-73
2023/05/19 02:29:43;;;;;;;22.38;5.82;;;;;;;;;;5012169;28;20054;-74
2023/05/19 02:32:10;;;;;;;14.65;4.90;;;;;;;;;;5012517;28;20165;-73
2023/05/19 02:34:36;;;;;;;19.73;5.15;;;;;;;;;;5012220;28;20053;-73
2023/05/19 02:37:02;;;;;;;17.95;5.30;;;;;;;;;;4994685;28;20456;-72
2023/05/19 02:39:33;;;;;;;24.42;5.32;;;;;;;;;;5012301;28;20086;-73
2023/05/19 02:41:59;;;;;;;13.85;4.82;;;;;;;;;;5010246;28;20046;-73
2023/05/19 02:44:25;;;;;;;14.63;5.05;;;;;;;;;;5009315;28;20046;-73
2023/05/19 02:46:51;;;;;;;17.42;4.85;;;;;;;;;;4994208;28;20459;-70
2023/05/19 02:49:17;;;;;;;18.67;4.40;;;;;;;;;;5012382;28;20196;-72
2023/05/19 02:51:43;;;;;;;16.85;5.20;;;;;;;;;;5010909;28;20081;-72
2023/05/19 02:54:09;;;;;;;17.10;5.38;;;;;;;;;;5011992;28;20081;-72
2023/05/19 02:56:35;;;;;;;14.38;5.20;;;;;;;;;;5010830;28;20056;-72
2023/05/19 02:59:01;;;;;;;16.98;5.65;;;;;;;;;;4977989;28;20046;-71
2023/05/19 03:01:27;;;;;;;17.38;5.35;;;;;;;;;;4977891;28;20037;-72
2023/05/19 03:03:53;;;;;;;16.13;5.70;;;;;;;;;;5011677;28;20141;-72
2023/05/19 03:06:22;;;;;;;15.70;5.45;;;;;;;;;;5011804;28;20046;-73
2023/05/19 03:08:48;;;;;;;19.67;6.40;;;;;;;;;;5011832;28;20053;-72
2023/05/19 03:11:14;;;;;;;22.90;5.88;;;;;;;;;;4993993;28;20054;-72
2023/05/19 03:13:40;;;;;;;15.23;5.88;;;;;;;;;;5011897;28;20050;-72
2023/05/19 03:16:06;;;;;;;16.48;5.85;;;;;;;;;;5011784;28;20044;-72
2023/05/19 03:18:33;;;;;;;19.30;5.55;;;;;;;;;;4993933;28;20137;-72
2023/05/19 03:20:59;;;;;;;19.95;6.05;;;;;;;;;;5013573;28;20127;-72
2023/05/19 03:23:25;;;;;;;19.90;5.80;;;;;;;;;;5015491;28;20097;-72
2023/05/19 03:25:53;;;;;;;17.85;6.10;;;;;;;;;;5015523;28;20046;-72
2023/05/19 03:28:19;;;;;;;20.67;5.63;;;;;;;;;;5015540;28;20053;-72
2023/05/19 03:30:45;;;;;;;22.95;6.65;;;;;;;;;;5015116;28;20055;-72
2023/05/19 03:33:11;;;;;;;16.83;6.28;;;;;;;;;;4997744;28;20073;-72
2023/05/19 03:35:37;;;;;;;18.95;6.22;;;;;;;;;;5015453;28;20041;-72
2023/05/19 03:38:03;;;;;;;17.17;6.22;;;;;;;;;;5015302;28;20050;-72
2023/05/19 03:40:29;;;;;;;24.17;6.60;;;;;;;;;;5015094;28;20498;-73
2023/05/19 03:42:55;;;;;;;18.33;6.65;;;;;;;;;;4981306;28;20108;-72
2023/05/19 03:45:21;;;;;;;22.55;6.93;;;;;;;;;;5014908;28;20050;-72
2023/05/19 03:47:47;;;;;;;22.83;7.25;;;;;;;;;;5013743;28;20046;-73
2023/05/19 03:50:13;;;;;;;22.50;6.30;;;;;;;;;;5014948;28;20499;-73
2023/05/19 03:52:45;;;;;;;21.25;6.05;;;;;;;;;;4997456;28;20053;-73
2023/05/19 03:55:13;;;;;;;16.13;6.35;;;;;;;;;;5014260;28;20133;-73
2023/05/19 03:57:40;;;;;;;15.95;6.20;;;;;;;;;;5014248;28;20508;-73
2023/05/19 04:00:07;;;;;;;20.92;6.97;;;;;;;;;;5014527;28;20141;-72
2023/05/19 04:02:33;;;;;;;18.40;6.25;;;;;;;;;;5014560;28;20076;-72
2023/05/19 04:04:59;;;;;;;19.48;6.95;;;;;;;;;;5014710;28;20053;-72
2023/05/19 04:07:25;;;;;;;19.08;6.63;;;;;;;;;;4996890;28;20092;-73
2023/05/19 04:09:52;;;;;;;20.63;7.18;;;;;;;;;;5013703;28;20443;-72
2023/05/19 04:12:18;;;;;;;16.75;7.00;;;;;;;;;;5014415;28;20186;-73
2023/05/19 04:14:44;;;;;;;30.75;8.13;;;;;;;;;;5014360;28;20117;-72
2023/05/19 04:17:10;;;;;;;23.05;7.03;;;;;;;;;;5014596;28;20050;-73
2023/05/19 04:19:36;;;;;;;18.08;7.60;;;;;;;;;;5012897;28;20052;-73
2023/05/19 04:22:02;;;;;;;25.73;7.35;;;;;;;;;;5012817;28;20050;-72
2023/05/19 04:24:28;;;;;;;22.30;7.68;;;;;;;;;;5014093;28;20042;-73
2023/05/19 04:26:54;;;;;;;17.00;6.97;;;;;;;;;;5014251;28;20045;-73
2023/05/19 04:29:22;;;;;;;20.35;7.68;;;;;;;;;;5014183;28;20466;-73
2023/05/19 04:31:48;;;;;;;20.27;7.47;;;;;;;;;;5012626;28;20100;-73
2023/05/19 04:34:14;;;;;;;23.25;7.13;;;;;;;;;;5012730;28;20085;-73
2023/05/19 04:36:40;;;;;;;15.40;6.60;;;;;;;;;;5014173;28;20053;-72
2023/05/19 04:39:08;;;;;;;22.08;6.90;;;;;;;;;;5013880;28;20054;-73
2023/05/19 04:41:34;;;;;;;20.63;7.20;;;;;;;;;;5014151;28;20049;-73
2023/05/19 04:44:00;;;;;;;21.52;7.80;;;;;;;;;;5013628;28;20069;-73
2023/05/19 04:46:28;;;;;;;17.90;7.50;;;;;;;;;;5012406;28;20045;-73
2023/05/19 04:48:55;;;;;;;19.05;7.07;;;;;;;;;;5009973;28;20076;-73
2023/05/19 04:51:26;;;;;;;20.67;6.90;;;;;;;;;;5011808;28;20426;-73
2023/05/19 04:53:53;;;;;;;18.80;7.53;;;;;;;;;;5013781;28;20389;-73
2023/05/19 04:56:19;;;;;;;19.52;7.38;;;;;;;;;;5013843;28;20083;-73
2023/05/19 04:58:45;;;;;;;21.13;7.15;;;;;;;;;;4995967;28;20054;-73
2023/05/19 05:01:12;;;;;;;21.90;7.45;;;;;;;;;;5012652;28;20565;-73
2023/05/19 05:03:38;;;;;;;18.35;7.50;;;;;;;;;;5031745;28;20049;-73
2023/05/19 05:06:05;;;;;;;20.80;7.70;;;;;;;;;;5033168;28;20118;-74
2023/05/19 05:08:31;;;;;;;17.33;7.65;;;;;;;;;;5033382;28;20369;-73
2023/05/19 05:10:58;;;;;;;15.50;6.90;;;;;;;;;;5033209;28;20050;-73
2023/05/19 05:13:24;;;;;;;23.00;8.20;;;;;;;;;;5015009;28;20402;-72
2023/05/19 05:15:54;;;;;;;16.92;7.30;;;;;;;;;;5014638;28;20080;-73
2023/05/19 05:18:21;;;;;;;18.58;7.55;;;;;;;;;;5013253;28;20050;-72
2023/05/19 05:20:48;;;;;;;18.10;7.10;;;;;;;;;;4995210;28;20042;-72
2023/05/19 05:23:15;;;;;;;16.17;7.20;;;;;;;;;;5012369;28;20049;-72
2023/05/19 05:25:41;;;;;;;18.75;7.43;;;;;;;;;;5013060;28;20042;-73
2023/05/19 05:28:08;;;;;;;19.40;6.78;;;;;;;;;;5013140;28;20453;-72
2023/05/19 05:30:34;;;;;;;16.42;6.68;;;;;;;;;;5012368;28;20037;-72
2023/05/19 05:33:00;;;;;;;15.15;7.05;;;;;;;;;;5012580;28;20045;-72
2023/05/19 05:35:27;;;;;;;16.42;6.50;;;;;;;;;;5012310;28;20453;-72
2023/05/19 05:37:53;;;;;;;16.77;6.43;;;;;;;;;;4995295;28;20050;-72
2023/05/19 05:40:19;;;;;;;12.02;6.30;;;;;;;;;;5012933;28;20140;-72
2023/05/19 05:42:45;;;;;;;15.20;5.90;;;;;;;;;;4994079;28;20453;-72
2023/05/19 05:45:11;;;;;;;13.23;6.40;;;;;;;;;;5012436;28;20056;-73
2023/05/19 05:47:38;;;;;;;13.60;6.30;;;;;;;;;;5012611;28;20509;-72
2023/05/19 05:50:08;;;;;;;16.83;6.93;;;;;;;;;;5011300;28;20050;-73
2023/05/19 05:52:36;;;;;;;14.82;6.72;;;;;;;;;;5013004;28;20034;-73
2023/05/19 05:55:02;;;;;;;14.23;7.28;;;;;;;;;;5012688;28;20133;-72
2023/05/19 05:57:29;;;;;;;14.05;6.82;;;;;;;;;;4994977;28;20487;-71
2023/05/19 05:59:55;;;;;;;13.10;6.35;;;;;;;;;;5012408;28;20057;-72
2023/05/19 06:02:24;;;;;;;16.95;6.60;;;;;;;;;;5011620;28;20054;-72
2023/05/19 06:04:52;;;;;;;13.02;6.32;;;;;;;;;;5012004;28;20049;-72
2023/05/19 06:07:19;;;;;;;14.57;6.82;;;;;;;;;;4992627;28;20494;-72
2023/05/19 06:09:45;;;;;;;13.13;5.97;;;;;;;;;;4994880;28;20376;-72
2023/05/19 06:12:11;;;;;;;13.45;5.88;;;;;;;;;;4993941;28;20101;-72
2023/05/19 06:14:37;;;;;;;14.20;6.65;;;;;;;;;;4993941;28;20091;-72
2023/05/19 06:17:03;;;;;;;12.82;6.13;;;;;;;;;;4977794;28;20445;-72
2023/05/19 06:19:29;;;;;;;18.48;6.30;;;;;;;;;;5012467;28;20110;-73
2023/05/19 06:21:55;;;;;;;11.90;6.30;;;;;;;;;;5011614;28;20057;-73
2023/05/19 06:24:21;;;;;;;10.75;5.60;;;;;;;;;;5011012;28;20045;-72
2023/05/19 06:26:47;;;;;;;15.43;5.75;;;;;;;;;;5012047;28;20371;-72
2023/05/19 06:29:13;;;;;;;12.82;5.10;;;;;;;;;;5010390;28;20053;-72
2023/05/19 06:31:39;;;;;;;8.48;4.47;;;;;;;;;;5012561;28;20050;-72
2023/05/19 06:34:05;;;;;;;11.75;4.60;;;;;;;;;;5010689;28;20073;-72
2023/05/19 06:36:31;;;;;;;12.65;4.50;;;;;;;;;;4994596;28;20046;-72
2023/05/19 06:38:57;;;;;;;8.30;4.30;;;;;;;;;;4994149;28;20050;-72
2023/05/19 06:41:23;;;;;;;13.25;4.93;;;;;;;;;;4994205;28;20042;-73
2023/05/19 06:43:49;;;;;;;9.55;4.47;;;;;;;;;;5012707;28;20470;-72
2023/05/19 06:46:16;;;;;;;12.55;4.95;;;;;;;;;;5022174;28;20084;-73
2023/05/19 06:48:42;;;;;;;9.10;4.50;;;;;;;;;;5011228;28;20085;-72
2023/05/19 06:51:09;;;;;;;10.75;4.45;;;;;;;;;;5031674;28;20394;-72
2023/05/19 06:53:35;;;;;;;11.18;4.18;;;;;;;;;;5030600;28;20106;-72
2023/05/19 06:56:01;;;;;;;8.25;4.00;;;;;;;;;;5030600;28;20041;-73
2023/05/19 06:58:27;;;;;;;10.18;4.38;;;;;;;;;;5013322;28;20037;-72
2023/05/19 07:00:53;;;;;;;11.93;4.07;;;;;;;;;;5014127;28;20132;-72
2023/05/19 07:03:20;;;;;;;9.02;3.83;;;;;;;;;;4997533;28;20053;-72
2023/05/19 07:05:46;;;;;;;12.18;3.80;;;;;;;;;;5019135;28;20050;-72
2023/05/19 07:08:12;;;;;;;7.78;3.25;;;;;;;;;;5033733;28;20065;-72
2023/05/19 07:10:38;;;;;;;9.88;3.38;;;;;;;;;;5021814;28;20054;-72
2023/05/19 07:13:04;;;;;;;10.63;3.75;;;;;;;;;;5015604;28;20089;-72
2023/05/19 07:15:30;;;;;;;8.43;4.03;;;;;;;;;;5015588;28;20141;-71
2023/05/19 07:17:57;;;;;;;12.13;4.00;;;;;;;;;;5015089;28;20049;-71
2023/05/19 07:20:23;;;;;;;10.43;3.72;;;;;;;;;;5027432;28;20120;-71
2023/05/19 07:22:49;;;;;;;10.55;3.67;;;;;;;;;;5035313;28;20565;-71
2023/05/19 07:25:15;;;;;;;10.73;3.85;;;;;;;;;;5015775;28;20042;-72
2023/05/19 07:27:41;;;;;;;8.40;3.40;;;;;;;;;;5014487;28;20042;-73
2023/05/19 07:30:08;;;;;;;11.52;3.53;;;;;;;;;;5015448;28;20042;-72
2023/05/19 07:32:33;;;;;;;10.18;3.70;;;;;;;;;;5015737;28;20045;-73
2023/05/19 07:34:59;;;;;;;13.90;3.67;;;;;;;;;;4997456;28;20050;-72
2023/05/19 07:37:26;;;;;;;9.02;3.70;;;;;;;;;;5017009;28;20060;-72
2023/05/19 07:39:52;;;;;;;8.55;3.30;;;;;;;;;;5016961;28;20045;-72
2023/05/19 07:42:18;;;;;;;9.63;3.50;;;;;;;;;;5024796;28;20045;-72
2023/05/19 07:44:44;;;;;;;8.63;3.28;;;;;;;;;;5013729;28;20521;-72
2023/05/19 07:47:10;;;;;;;7.38;3.10;;;;;;;;;;5015312;28;20077;-71
2023/05/19 07:49:36;;;;;;;11.95;3.88;;;;;;;;;;5013912;28;20064;-71
2023/05/19 07:52:02;;;;;;;5.50;3.00;;;;;;;;;;4997198;28;20045;-71
2023/05/19 07:54:28;;;;;;;7.72;3.15;;;;;;;;;;4995328;28;20045;-71
2023/05/19 07:56:54;;;;;;;10.90;3.10;;;;;;;;;;5013470;28;20446;-71
2023/05/19 07:59:20;;;;;;;7.32;2.97;;;;;;;;;;5013296;28;20126;-72
2023/05/19 08:01:46;;;;;;;8.68;3.22;;;;;;;;;;4996276;28;20042;-71
2023/05/19 08:04:13;;;;;;;8.75;3.08;;;;;;;;;;4996642;28;20081;-71
2023/05/19 08:06:41;;;;;;;7.72;3.10;;;;;;;;;;4979413;28;20850;-71
2023/05/19 08:09:07;;;;;;;10.00;3.30;;;;;;;;;;5014264;28;20434;-71
2023/05/19 08:11:33;;;;;;;8.20;3.17;;;;;;;;;;5027145;28;20080;-72
2023/05/19 08:13:59;;;;;;;9.60;2.72;;;;;;;;;;5031291;28;20107;-72
2023/05/19 08:16:25;;;;;;;9.93;3.10;;;;;;;;;;5016444;28;20149;-72
2023/05/19 08:18:51;;;;;;;7.88;3.30;;;;;;;;;;5015337;28;20061;-72
2023/05/19 08:21:17;;;;;;;7.35;3.15;;;;;;;;;;5016216;28;20140;-71
2023/05/19 08:23:43;;;;;;;9.95;3.10;;;;;;;;;;5032782;28;20132;-72
2023/05/19 08:26:09;;;;;;;8.95;3.13;;;;;;;;;;5033969;28;20049;-72
2023/05/19 08:28:35;;;;;;;8.95;3.50;;;;;;;;;;5033873;28;20037;-71
2023/05/19 08:31:01;;;;;;;7.97;3.20;;;;;;;;;;5033707;28;20045;-71
2023/05/19 08:33:27;;;;;;;8.48;3.03;;;;;;;;;;5032862;28;20054;-72
2023/05/19 08:35:56;;;;;;;9.02;3.40;;;;;;;;;;5032691;28;20045;-72
2023/05/19 08:38:22;;;;;;;12.05;3.33;;;;;;;;;;5026299;28;20100;-73
2023/05/19 08:40:49;;;;;;;8.35;3.13;;;;;;;;;;5013621;28;20045;-72
2023/05/19 08:43:15;;;;;;;11.10;3.45;;;;;;;;;;5027525;28;20049;-71
2023/05/19 08:45:48;;;;;;;7.03;3.08;;;;;;;;;;5015428;28;20041;-72
2023/05/19 08:48:16;;;;;;;8.15;3.20;;;;;;;;;;5033487;28;20180;-71
2023/05/19 08:50:43;;;;;;;7.05;3.05;;;;;;;;;;5033034;28;20096;-71
2023/05/19 08:53:24;;;;;;;9.07;3.22;;;;;;;;;;5030638;28;20080;-71
2023/05/19 08:55:58;;;;;;;11.52;3.13;;;;;;;;;;5032773;28;20096;-70
2023/05/19 08:58:25;;;;;;;10.02;3.35;;;;;;;;;;5015208;28;20041;-71
2023/05/19 09:00:52;;;;;;;7.28;3.22;;;;;;;;;;5033276;28;20055;-70
2023/05/19 09:03:18;;;;;;;8.52;3.50;;;;;;;;;;5032286;28;20037;-71
2023/05/19 09:05:45;;;;;;;10.13;2.97;;;;;;;;;;5042248;28;20055;-70
2023/05/19 09:08:11;;;;;;;8.93;3.03;;;;;;;;;;5034897;28;20037;-71
2023/05/19 09:10:37;;;;;;;10.73;3.30;;;;;;;;;;5051448;28;20045;-71
2023/05/19 09:13:04;;;;;;;10.55;3.25;;;;;;;;;;5032661;28;20354;-70
2023/05/19 09:15:31;;;;;;;7.00;3.10;;;;;;;;;;5033284;28;20104;-71
2023/05/19 09:18:08;;;;;;;10.23;3.53;;;;;;;;;;5033142;28;20370;-72
2023/05/19 09:20:38;;;;;;;11.73;3.38;;;;;;;;;;5032463;28;20057;-72
2023/05/19 09:23:05;;;;;;;6.72;3.15;;;;;;;;;;5014738;28;20088;-72
2023/05/19 09:25:31;;;;;;;9.63;3.35;;;;;;;;;;5032694;28;20099;-72
2023/05/19 09:27:57;;;;;;;8.23;3.25;;;;;;;;;;5032846;28;20049;-72
2023/05/19 09:30:23;;;;;;;11.68;3.15;;;;;;;;;;5032824;28;20555;-72
2023/05/19 09:32:50;;;;;;;7.60;3.40;;;;;;;;;;5031039;28;20047;-71
2023/05/19 09:35:18;;;;;;;8.43;3.53;;;;;;;;;;5023901;28;20045;-71
2023/05/19 09:37:45;;;;;;;11.50;3.70;;;;;;;;;;5035458;28;20045;-71
2023/05/19 09:40:13;;;;;;;9.85;3.45;;;;;;;;;;5030848;28;20441;-72
2023/05/19 09:42:40;;;;;;;10.73;3.25;;;;;;;;;;5031872;28;20056;-72
2023/05/19 09:45:10;;;;;;;8.60;3.17;;;;;;;;;;5031413;28;20374;-72
2023/05/19 09:47:37;;;;;;;7.35;2.95;;;;;;;;;;5032633;28;20037;-72
2023/05/19 09:50:07;;;;;;;6.72;2.88;;;;;;;;;;5032046;28;20136;-72
2023/05/19 09:52:34;;;;;;;8.55;2.88;;;;;;;;;;5006390;28;20390;-72
2023/05/19 09:55:03;;;;;;;9.57;3.03;;;;;;;;;;5023645;28;20073;-71
2023/05/19 09:57:33;;;;;;;9.05;3.05;;;;;;;;;;5005104;28;20088;-71
2023/05/19 09:59:59;;;;;;;7.55;2.92;;;;;;;;;;5030088;28;20465;-71
2023/05/19 10:02:26;;;;;;;8.73;3.15;;;;;;;;;;5030841;28;20069;-72
2023/05/19 10:04:53;;;;;;;9.50;2.90;;;;;;;;;;5031900;28;20140;-71
2023/05/19 10:07:20;;;;;;;9.07;2.90;;;;;;;;;;5014143;28;20057;-71
2023/05/19 10:09:48;;;;;;;7.57;2.78;;;;;;;;;;5014180;28;20048;-72
2023/05/19 10:12:16;;;;;;;6.97;2.65;;;;;;;;;;5030137;28;20049;-71
2023/05/19 10:14:42;;;;;;;6.50;2.50;;;;;;;;;;5030650;28;20133;-71
2023/05/19 10:17:09;;;;;;;7.75;2.60;;;;;;;;;;5031764;28;20045;-71
2023/05/19 10:19:35;;;;;;;6.55;2.65;;;;;;;;;;5031897;28;20045;-71
2023/05/19 10:22:01;;;;;;;7.25;2.70;;;;;;;;;;5032180;28;20057;-72
2023/05/19 10:24:28;;;;;;;9.23;2.70;;;;;;;;;;5035329;28;20050;-69
2023/05/19 10:26:56;;;;;;;6.95;2.80;;;;;;;;;;5032113;28;20398;-67
2023/05/19 10:29:27;;;;;;;8.05;2.75;;;;;;;;;;5034481;28;20045;-67
2023/05/19 10:31:55;;;;;;;5.15;2.40;;;;;;;;;;5020815;28;20060;-67
2023/05/19 10:34:36;;;;;;;6.55;2.10;;;;;;;;;;5038638;28;20038;-67
2023/05/19 10:37:05;;;;;;;4.63;2.40;;;;;;;;;;5021182;28;20379;-68
2023/05/19 10:39:34;;;;;;;6.60;2.20;;;;;;;;;;5038703;28;20096;-69
2023/05/19 10:42:08;;;;;;;6.18;2.40;;;;;;;;;;5038782;28;20049;-69
2023/05/19 10:44:37;;;;;;;6.15;2.22;;;;;;;;;;5020372;28;20136;-69
2023/05/19 10:47:06;;;;;;;5.47;2.40;;;;;;;;;;5037100;28;20073;-69
2023/05/19 10:49:34;;;;;;;6.15;2.42;;;;;;;;;;5020720;28;20362;-69
2023/05/19 10:52:00;;;;;;;6.18;2.47;;;;;;;;;;5036726;28;20053;-67
2023/05/19 10:54:39;;;;;;;8.05;2.80;;;;;;;;;;5037376;28;20046;-67
2023/05/19 10:57:06;;;;;;;5.07;2.20;;;;;;;;;;5037605;28;20742;-67
2023/05/19 10:59:35;;;;;;;6.13;2.20;;;;;;;;;;5037212;28;20045;-67
2023/05/19 11:02:05;;;;;;;5.35;2.50;;;;;;;;;;5036580;28;20076;-68
2023/05/19 11:04:49;;;;;;;6.65;2.30;;;;;;;;;;5035693;28;20133;-68
2023/05/19 11:07:20;;;;;;;7.23;2.30;;;;;;;;;;5049151;28;20041;-68
2023/05/19 11:09:53;;;;;;;5.90;2.10;;;;;;;;;;5020371;28;20155;-68
2023/05/19 11:12:20;;;;;;;6.00;2.03;;;;;;;;;;5038095;28;20520;-68
2023/05/19 11:14:46;;;;;;;5.15;2.22;;;;;;;;;;5037795;28;20041;-68
2023/05/19 11:17:14;;;;;;;7.07;2.00;;;;;;;;;;5037257;28;20055;-68
2023/05/19 11:19:50;;;;;;;6.40;2.15;;;;;;;;;;5054167;28;20041;-68
2023/05/19 11:22:16;;;;;;;5.43;2.13;;;;;;;;;;5038248;28;20096;-68
2023/05/19 11:24:44;;;;;;;6.90;2.20;;;;;;;;;;5019458;28;20138;-68
2023/05/19 11:27:19;;;;;;;5.07;2.08;;;;;;;;;;5037837;28;20053;-68
2023/05/19 11:29:47;;;;;;;5.53;2.20;;;;;;;;;;5019662;28;20060;-68
2023/05/19 11:32:13;;;;;;;7.97;2.33;;;;;;;;;;5019971;28;20033;-68
2023/05/19 11:34:39;;;;;;;7.32;2.35;;;;;;;;;;5038503;28;20147;-68
2023/05/19 11:37:06;;;;;;;5.90;2.53;;;;;;;;;;5019753;28;20527;-68
2023/05/19 11:39:32;;;;;;;7.63;2.20;;;;;;;;;;5019613;28;20191;-69
2023/05/19 11:41:58;;;;;;;6.68;2.20;;;;;;;;;;5015703;28;20041;-67
2023/05/19 11:44:25;;;;;;;4.00;2.10;;;;;;;;;;5027537;28;20063;-67
2023/05/19 11:46:51;;;;;;;8.38;2.40;;;;;;;;;;5053652;28;20041;-68
2023/05/19 11:49:17;;;;;;;4.78;2.10;;;;;;;;;;5034160;28;20354;-70
2023/05/19 11:51:43;;;;;;;6.32;2.30;;;;;;;;;;5034783;28;20540;-70
2023/05/19 11:54:12;;;;;;;6.60;2.20;;;;;;;;;;5034473;28;20491;-70
2023/05/19 11:56:42;;;;;;;6.88;2.20;;;;;;;;;;5031901;28;20081;-70
2023/05/19 11:59:08;;;;;;;7.43;2.30;;;;;;;;;;5016248;28;20490;-69
2023/05/19 12:01:35;;;;;;;5.57;2.45;;;;;;;;;;5016645;28;20045;-70
2023/05/19 12:04:02;;;;;;;5.72;2.25;;;;;;;;;;5034337;28;20061;-71
2023/05/19 12:06:28;;;;;;;8.25;2.30;;;;;;;;;;5034579;28;20441;-70
2023/05/19 12:08:55;;;;;;;6.15;2.13;;;;;;;;;;5032212;28;20506;-70
2023/05/19 12:11:22;;;;;;;5.55;2.10;;;;;;;;;;5034106;28;20113;-70
2023/05/19 12:13:53;;;;;;;6.43;1.98;;;;;;;;;;5034102;28;20569;-70
2023/05/19 12:16:22;;;;;;;4.93;2.00;;;;;;;;;;5033647;28;20124;-70
2023/05/19 12:18:48;;;;;;;5.07;2.10;;;;;;;;;;5049073;28;20049;-70
2023/05/19 12:21:14;;;;;;;8.18;2.35;;;;;;;;;;5040913;28;20067;-70
2023/05/19 12:23:41;;;;;;;6.72;2.20;;;;;;;;;;5031767;28;20053;-70
2023/05/19 12:26:07;;;;;;;6.18;2.05;;;;;;;;;;5030422;28;20048;-70
2023/05/19 12:28:33;;;;;;;6.60;1.90;;;;;;;;;;5028074;28;20046;-70
2023/05/19 12:30:59;;;;;;;5.82;2.28;;;;;;;;;;5030878;28;20124;-70
2023/05/19 12:33:25;;;;;;;6.07;2.20;;;;;;;;;;5012511;28;20045;-69
2023/05/19 12:35:51;;;;;;;6.75;2.50;;;;;;;;;;5032504;28;20048;-68
2023/05/19 12:38:19;;;;;;;10.25;2.50;;;;;;;;;;5033879;28;20037;-68
2023/05/19 12:40:45;;;;;;;6.30;2.40;;;;;;;;;;5032303;28;20041;-68
2023/05/19 12:43:21;;;;;;;5.70;2.20;;;;;;;;;;5014748;28;20049;-68
2023/05/19 12:45:48;;;;;;;7.95;2.45;;;;;;;;;;5033723;28;20099;-69
2023/05/19 12:48:15;;;;;;;6.78;2.75;;;;;;;;;;5033290;28;20144;-69
2023/05/19 12:50:41;;;;;;;9.35;2.50;;;;;;;;;;5015590;28;20049;-68
2023/05/19 12:53:08;;;;;;;7.20;2.40;;;;;;;;;;5033535;28;20076;-68
2023/05/19 12:55:40;;;;;;;6.22;2.28;;;;;;;;;;5030055;28;20050;-69
2023/05/19 12:58:06;;;;;;;7.38;2.42;;;;;;;;;;5031588;28;20038;-67
2023/05/19 13:00:34;;;;;;;7.93;2.70;;;;;;;;;;5033545;28;20046;-68
2023/05/19 13:03:00;;;;;;;8.43;2.63;;;;;;;;;;5033285;28;20100;-68
2023/05/19 13:05:33;;;;;;;9.13;2.95;;;;;;;;;;5015694;28;20476;-68
2023/05/19 13:08:00;;;;;;;5.93;2.35;;;;;;;;;;5033084;28;20063;-69
2023/05/19 13:10:27;;;;;;;10.52;2.58;;;;;;;;;;5033040;28;20498;-70
2023/05/19 13:12:54;;;;;;;7.88;2.53;;;;;;;;;;5033459;28;20049;-69
2023/05/19 13:15:22;;;;;;;7.18;2.63;;;;;;;;;;5015637;28;20420;-68
2023/05/19 13:17:48;;;;;;;6.82;2.83;;;;;;;;;;5033228;28;20107;-68
2023/05/19 13:20:15;;;;;;;7.25;2.47;;;;;;;;;;5032677;28;20132;-68
2023/05/19 13:22:41;;;;;;;8.05;2.42;;;;;;;;;;5015112;28;20049;-68
2023/05/19 13:25:08;;;;;;;8.05;2.75;;;;;;;;;;5015086;28;20049;-69
2023/05/19 13:27:34;;;;;;;8.63;2.80;;;;;;;;;;5032970;28;20347;-69
2023/05/19 13:30:01;;;;;;;8.27;2.60;;;;;;;;;;5032530;28;20053;-68
2023/05/19 13:32:27;;;;;;;6.63;2.85;;;;;;;;;;5015165;28;20046;-69
2023/05/19 13:34:53;;;;;;;7.40;2.67;;;;;;;;;;5031709;28;20047;-68
2023/05/19 13:37:19;;;;;;;6.65;2.65;;;;;;;;;;5032298;28;20504;-67
2023/05/19 13:39:45;;;;;;;9.38;2.90;;;;;;;;;;5032014;28;20486;-67
2023/05/19 13:42:11;;;;;;;11.27;3.10;;;;;;;;;;5032174;28;20049;-68
2023/05/19 13:44:37;;;;;;;8.93;3.08;;;;;;;;;;5032570;28;20052;-68
2023/05/19 13:47:03;;;;;;;6.75;2.80;;;;;;;;;;5032552;28;20045;-68
2023/05/19 13:49:29;;;;;;;9.70;3.80;;;;;;;;;;5032248;28;20129;-69
2023/05/19 13:51:59;;;;;;;9.98;3.50;;;;;;;;;;5032852;28;20133;-69
2023/05/19 13:54:25;;;;;;;8.65;3.30;;;;;;;;;;5031121;28;20120;-69
2023/05/19 13:56:51;;;;;;;10.38;3.30;;;;;;;;;;5010250;28;20080;-68
2023/05/19 13:59:17;;;;;;;8.93;3.40;;;;;;;;;;5029016;28;20057;-68
2023/05/19 14:01:44;;;;;;;13.07;3.22;;;;;;;;;;5030831;28;20418;-68
2023/05/19 14:04:10;;;;;;;7.65;3.20;;;;;;;;;;5007505;28;20058;-68
2023/05/19 14:06:37;;;;;;;12.45;3.70;;;;;;;;;;5023330;28;20046;-69
2023/05/19 14:09:03;;;;;;;10.13;3.33;;;;;;;;;;5007642;28;20608;-68
2023/05/19 14:11:29;;;;;;;11.40;3.67;;;;;;;;;;5010921;28;20140;-69
2023/05/19 14:13:55;;;;;;;11.30;3.90;;;;;;;;;;5010641;28;20042;-68
2023/05/19 14:16:21;;;;;;;9.90;3.42;;;;;;;;;;5012305;28;20064;-68
2023/05/19 14:18:48;;;;;;;12.18;3.50;;;;;;;;;;5011008;28;20041;-69
2023/05/19 14:21:15;;;;;;;9.75;3.63;;;;;;;;;;5009883;28;20082;-69
2023/05/19 14:23:41;;;;;;;8.10;3.58;;;;;;;;;;5026327;28;20050;-69
2023/05/19 14:26:07;;;;;;;11.50;4.03;;;;;;;;;;5011067;28;20042;-68
2023/05/19 14:28:33;;;;;;;10.68;3.35;;;;;;;;;;5011955;28;20501;-68
2023/05/19 14:30:59;;;;;;;11.70;3.13;;;;;;;;;;5010289;28;20047;-68
2023/05/19 14:33:25;;;;;;;8.52;3.20;;;;;;;;;;4990978;28;20034;-67
2023/05/19 14:35:51;;;;;;;12.30;3.47;;;;;;;;;;5012346;28;20092;-67